Accueil
METAR-TAF:

METAR-TAF

Aéroports :

Stigler, Oklahoma, États-Unis

latitude: 35-17-17N, longitude: 095-05-38W, altitude: 183 m

Observation

Le bulletin a été fait il y a 26 minutes, à 21:15 UTC
Vent 14 kt de sud avec des rafales jusqu'à 20 kt
Température 20°C
Humidité 60%
Pression 1013 hPa
Visibilité: 16.1 km
Nuages fragmentés à une hauteur de 2800 ft

METAR: KGZL 202115Z AUTO 18014G20KT 10SM BKN028 20/12 A2991 RMK AO2

Heure: 15:41 (21:41 UTC)


TAF: absent

Observations et prévisions météorologiques de plus de 4000 aéroports (messages METAR et TAF).

Les stations disponibles sont représentées par des disques jaunes et rouges sur la carte.

Passer la souris dessus pour voir le nom de la station.

Cliquer dessus pour voir les observations et prévisions météorologiques.

Pour changer de carte: cliquez sur les boutons verts avec une croix noire pour zoomer, sur le bouton vert avec un tiret pour effectuer un zoom arrière, ou sur les flèches vertes pour les cartes adjacentes.


METAR-TAF: